Create Custom Reports and Graphics: Custom Report

Bell Hill West (BHR)

Current Conditions

1/22/20 4:15 AM (-08:00)
Updated Every 15 Minutes
Temp 41.3 °F   4.5
RH 100 %   16
Dew Pt 41.4 °F   0.1
Wet Bulb 41.6 °F   2.5
Wind Dir N | 0 °
Wind Spd 0.0 mph   1.7
Wind Gust 0.0 mph   4.3
Solar Rad 0 W/m2   0
Daily Min Temp 41.0 °F   4.7
Daily Max Temp 43.2 °F   4.4
Latest Rain 0.00 In
Daily Rain 0.00 In

Bell Hill West

Last 24 Hours

Hourly Data | America/Los_Angeles
as of 1/22/20 4:27 AM PST
Date & Time Temp (°F) RH (%) Dew Pt (°F) Wet Bulb (°F) Leaf Wet (mins) Wind Dir (°) Wind Spd (mph) Wind Gust (mph) Solar Rad (W/m2) Latest Rain (In) Daily Rain (In) Daily Min Temp (°F) Daily Max Temp (°F)
1/22/20 - 0400 42.3 100 41.6 42.6 0.0 S | 182 0.6 4.4 0 0.00 0.00 41.4 43.2
1/22/20 - 0300 41.8 100 42.3 42.2 0.0 SSW | 192 1.3 3.8 0 0.00 0.00 41.4 43.2
1/22/20 - 0200 42.3 100 41.6 42.6 0.0 SSW | 195 1.3 2.7 0 0.00 0.00 41.6 43.2
1/22/20 - 0100 43.1 100 43.2 43.4 0.0 S | 178 1.4 3.4 0 0.00 0.00 43.0 43.2
1/22/20 - 0000 43.5 99 43.1 43.7 0.0 SSW | 192 0.0 3.3 0 0.00 0.12 43.0 52.6
1/21/20 - 2300 44.2 98 43.4 44.4 0.0 NNE | 27 0.2 3.3 0 0.00 0.12 43.9 52.6
1/21/20 - 2200 45.2 93 43.1 44.8 0.0 SW | 226 0.5 4.6 0 0.00 0.12 44.1 52.6
1/21/20 - 2100 46.8 93 43.8 46.3 0.0 SSW | 203 1.8 4.8 0 0.00 0.12 44.8 52.6
1/21/20 - 2000 48.1 90 45.2 47.2 0.0 W | 269 1.4 5.1 0 0.00 0.12 44.8 52.6
1/21/20 - 1900 48.8 92 45.8 48.1 0.0 WSW | 256 0.9 5.6 0 0.01 0.12 44.8 52.6
1/21/20 - 1800 49.9 91 47.0 49.2 0.0 SW | 229 2.9 8.6 1 0.01 0.11 44.8 52.6
1/21/20 - 1700 51.2 90 48.2 50.4 0.0 S | 191 3.7 9.6 35 0.00 0.10 44.8 52.6
1/21/20 - 1600 51.6 92 48.8 51.2 0.0 SSW | 202 4.2 10.0 91 0.00 0.10 44.8 52.6
1/21/20 - 1500 51.6 92 49.6 51.2 0.0 SSW | 197 4.0 6.4 113 0.01 0.10 44.8 52.6
1/21/20 - 1400 52.2 90 49.7 51.5 0.0 SSW | 196 5.2 11.5 310 0.01 0.09 44.8 52.6
1/21/20 - 1300 51.8 90 48.9 51.0 0.0 SSW | 193 6.2 12.8 377 0.00 0.08 44.8 52.3
1/21/20 - 1200 50.6 90 48.1 49.7 0.0 S | 185 7.8 13.8 291 0.00 0.08 44.8 51.3
1/21/20 - 1100 49.6 90 46.8 48.7 0.0 S | 183 6.8 14.5 121 0.01 0.08 44.8 49.8
1/21/20 - 1000 48.8 91 46.9 48.1 0.0 S | 185 3.5 9.0 102 0.01 0.07 44.8 49.5
1/21/20 - 0900 47.2 94 45.9 46.8 0.0 SSE | 163 1.7 8.8 48 0.01 0.06 44.8 48.1
1/21/20 - 0800 46.3 93 44.6 45.8 0.0 S | 170 2.3 6.8 4 0.02 0.05 44.8 47.6
1/21/20 - 0700 46.0 93 44.0 45.5 0.0 S | 180 3.5 10.6 0 0.00 0.03 44.8 47.6
1/21/20 - 0600 45.0 94 44.0 44.5 0.0 SE | 138 0.6 3.8 0 0.01 0.03 44.8 47.6
1/21/20 - 0500 45.4 87 42.3 44.0 0.0 SSE | 154 1.2 7.6 0 0.02 0.02 44.9 47.6
1/21/20 - 0400 46.8 81 41.6 44.4 0.0 SSE | 156 2.7 10.6 0 0.00 0.00 46.0 47.6
Max 52.2 100 49.7 51.5 0.0 - 7.8 14.5 377 0.02 0.12 46.0 52.6
Avg 47.2 93 45.2 46.7 0.0 - 2.6 7.4 60 0.00 - - -
Min 41.8 81 41.6 42.2 0.0 - 0.0 2.7 0 0.00 0.00 41.4 43.2
Total - - - - - - - - - 0.12 - - -

Bell Hill West - Daily Summary

Last 30 Days

Daily Data | America/Los_Angeles
as of 1/22/20 4:27 AM PST
Date Daily Max Temp (°F) Max Temp Time Daily Min Temp (°F) Min Temp Time Daily Rain (In) Seasonal Rainfall (In) Wind Spd (mph) Daily Max Wind (mph) Max Wind Time Max Wind Dir (°) Dew Pt (°F) Max RH (%) Min RH (%) Daily Solar Rad (Cal/cm2) Daily ETo (in) GDDs (DL) Chill Hrs <=45 (hrs) Hrs <= 32F (hrs) Hrs <= 28F (hrs) Hrs 70-85F (hrs) Hrs > 95F (hrs) Powdery Mildew Stress (pts) Leaf Wet (hrs) Bat Volt Min Day (V)
1/21/20 52.6 1331 43.0 2352 0.12 10.29 3.0 14.5 1008 S | 190 45.1 100 75 128 0.028 0.38 3.3 0.0 0.0 0.00 0.00 0 0.5 12.05
1/20/20 55.5 1514 36.2 2038 0.01 10.17 1.5 15.3 1532 SW | 215 36.9 91 40 120 0.030 0.51 14.2 0.0 0.0 0.00 0.00 0 0.7 12.07
1/19/20 55.1 1355 31.9 0445 0.00 10.16 1.7 11.5 2026 SSW | 196 35.4 100 37 159 0.038 0.79 13.6 0.1 0.0 0.00 0.00 0 0.7 12.13
1/18/20 50.2 1512 28.9 0546 0.00 10.16 1.1 7.4 1422 N | 3 34.3 100 51 243 0.044 0.00 18.9 5.2 0.0 0.00 0.00 0 0.7 12.10
1/17/20 45.6 1538 30.0 0637 0.00 10.16 0.2 6.8 1449 NNW | 344 36.0 100 71 177 0.031 0.00 22.4 3.4 0.0 0.00 0.00 0 0.7 12.03
1/16/20 45.0 0523 32.3 0902 1.10 10.16 3.4 27.2 0327 S | 178 37.1 100 83 91 0.017 0.00 24.0 0.0 0.0 0.00 0.00 0 0.7 12.07
1/15/20 47.2 1347 26.6 0507 0.05 9.06 1.8 17.8 2346 SSE | 167 33.6 100 59 190 0.033 0.00 21.9 9.0 4.9 0.00 0.00 0 0.6 12.08
1/14/20 47.3 1416 29.4 2319 0.00 9.01 3.2 15.2 1342 SW | 228 36.4 100 66 158 0.033 0.00 20.6 2.3 0.0 0.00 0.00 0 0.7 12.08
1/13/20 48.6 1130 32.4 0755 0.05 9.01 3.9 15.3 2134 WSW | 243 39.3 100 63 176 0.036 0.00 10.9 0.0 0.0 0.00 0.00 0 0.8 12.06
1/12/20 47.1 1208 28.3 0517 0.04 8.96 2.7 10.6 1244 W | 264 37.1 100 75 154 0.028 0.00 20.6 6.9 0.0 0.00 0.00 0 0.7 12.10
1/11/20 50.4 1352 31.2 2336 0.01 8.92 3.6 17.2 1121 NNE | 14 38.1 100 61 151 0.034 0.00 15.3 0.4 0.0 0.00 0.00 0 0.7 12.10
1/10/20 56.0 1446 28.9 0710 0.03 8.91 3.1 14.2 1526 SSW | 203 36.5 100 32 232 0.052 0.64 13.7 7.7 0.0 0.00 0.00 0 0.7 12.13
1/9/20 53.3 1618 32.0 2347 0.21 8.88 1.5 10.0 0407 WNW | 296 39.6 100 56 227 0.041 0.20 17.5 0.0 0.0 0.00 0.00 0 0.7 12.06
1/8/20 50.7 1339 31.9 0614 0.00 8.67 1.7 10.1 1410 WSW | 247 38.7 100 71 125 0.025 0.00 18.4 0.2 0.0 0.00 0.00 0 0.7 12.13
1/7/20 55.7 1241 25.8 0710 0.12 8.67 2.7 14.3 1252 W | 268 34.7 100 37 256 0.053 0.43 13.7 8.9 4.0 0.00 0.00 0 0.5 12.13
1/6/20 58.6 1610 27.3 0757 0.00 8.55 1.8 6.1 1456 NNW | 337 31.3 100 32 252 0.050 1.11 17.6 10.0 1.5 0.00 0.00 0 0.5 12.14
1/5/20 50.9 1556 29.9 0642 0.00 8.55 2.1 10.3 1152 SW | 235 35.2 100 56 165 0.032 0.02 16.5 6.0 0.0 0.00 0.00 0 0.6 12.15
1/4/20 55.9 1424 33.2 0027 0.07 8.55 1.4 10.8 0528 W | 261 40.2 100 53 244 0.050 0.83 15.4 0.0 0.0 0.00 0.00 0 0.5 12.13
1/3/20 62.6 1442 30.3 0716 0.00 8.48 1.9 8.3 1611 SSW | 196 35.4 100 27 237 0.050 1.93 16.3 3.9 0.0 0.00 0.00 0 0.6 12.14
1/2/20 62.1 1536 32.6 0718 0.00 8.48 1.8 6.9 1323 N | 10 36.4 100 39 239 0.048 1.96 16.1 0.0 0.0 0.00 0.00 0 0.5 12.13
1/1/20 61.8 1407 39.0 2359 0.00 8.48 3.0 18.3 1240 WSW | 254 43.9 100 56 186 0.049 3.29 10.1 0.0 0.0 0.00 0.00 0 0.7 12.16
12/31/19 61.4 1514 30.1 0342 0.00 8.48 0.8 6.4 2214 SW | 224 37.5 100 40 205 0.039 1.54 16.8 6.0 0.0 0.00 0.00 0 0.6 12.11
12/30/19 48.8 1623 32.5 2355 0.00 8.48 0.1 4.8 1439 N | 0 38.9 100 89 146 0.026 0.00 21.1 0.0 0.0 0.00 0.00 0 0.5 12.03
12/29/19 45.7 1132 35.6 0700 0.90 8.48 1.0 10.6 1744 E | 91 40.5 100 84 45 0.010 0.00 22.0 0.0 0.0 0.00 0.00 0 0.2 12.08
12/28/19 58.0 1444 27.2 0513 0.01 7.58 1.4 6.3 1140 NE | 39 33.3 100 35 230 0.044 0.98 16.3 8.7 2.5 0.00 0.00 0 0.5 12.17
12/27/19 54.2 1552 24.2 0727 0.00 7.57 2.0 6.4 1329 ENE | 59 29.0 100 37 228 0.040 0.35 18.9 12.2 7.2 0.00 0.00 0 0.6 12.17
12/26/19 53.8 1522 26.5 0757 0.00 7.57 1.7 6.1 1306 NE | 44 30.5 100 31 245 0.045 0.34 18.2 11.7 2.2 0.00 0.00 0 0.5 11.98
12/25/19 43.3 1218 33.2 2358 0.05 7.57 1.3 9.3 1226 ESE | 104 37.2 100 80 59 0.014 0.00 24.0 0.0 0.0 0.00 0.00 0 0.3 12.03
12/24/19 46.5 1356 28.4 0503 0.01 7.52 0.8 9.5 1352 SW | 230 34.1 100 66 154 0.028 0.00 22.4 7.8 0.0 0.00 0.00 0 0.4 12.14
12/23/19 49.7 1545 29.4 0336 0.01 7.51 1.0 8.6 1323 NE | 36 34.3 100 65 184 0.029 0.00 21.6 6.6 0.0 0.00 0.00 0 0.5 12.04
Max 62.6 - 43.0 - 1.10 - 3.9 27.2 - - 45.1 100 89 256 0.053 3.29 24.0 12.2 7.2 0.00 0.00 0 0.8 12.17
Avg - - - - - - 1.9 - - - 36.5 - - - - 0.51 17.4 3.9 0.7 0.00 0.00 - - -
Min 43.3 - 24.2 - 0.00 - 0.1 4.8 - - 29.0 91 27 45 0.010 0.00 3.3 0.0 0.0 0.00 0.00 0 0.2 11.98
Total - - - - - - - - - - - - - - - 15.30 522.3 116.8 22.3 0.00 0.00 - - -

Bell Hill West Climate Summary

Current Yeaer

Current Year | Showing 1/1/20 - 1/21/20
as of 1/22/20 4:27 AM PST
Temperature (°F) Precip (in) Days
Month Days Avg Max Avg Min Max Max Min Min Total Daily Min Temp < 28 Daily Min Temp < 32 Daily Max Temp > 90 Daily Max Temp > 100 Daily Rain > 0.01 Daily Rain > 0.1
Jan 2020 21 53 31.5 62.6 25.8 1.81 3 13 0 0 9 4

Bell Hill West Climate Summary

Last Year

Last Year | Showing 1/1/19 - 12/31/19
as of 1/22/20 4:27 AM PST
Temperature (°F) Precip (in) Days
Month Days Avg Max Avg Min Max Max Min Min Total Daily Min Temp < 28 Daily Min Temp < 32 Daily Max Temp > 90 Daily Max Temp > 100 Daily Rain > 0.01 Daily Rain > 0.1
Jan 2019 31 56.8 36.2 71.5 24.5 10.09 3 8 0 0 12 11
Feb 2019 28 49.5 33.4 56.5 21.5 17.41 10 14 0 0 17 14
Mar 2019 31 58.8 36.4 74.6 26.8 4.4 1 6 0 0 12 10
Apr 2019 30 70.5 44 88.6 33.2 0.38 0 0 0 0 4 1
May 2019 31 72.1 44.7 85.2 36.4 2.59 0 0 0 0 6 5
Jun 2019 30 87.1 51.7 98.2 41.6 0 0 0 10 0 0 0
Jul 2019 31 89.5 54 100 47.1 0 0 0 14 0 0 0
Aug 2019 31 91.4 55.5 102 49.6 0 0 0 21 1 0 0
Sep 2019 30 82.5 47.9 97.2 34.3 0.1 0 0 9 0 2 0
Oct 2019 31 76.3 36.4 88.5 27.4 0.01 3 5 0 0 0 0
Nov 2019 30 68.5 34 81.6 23.2 1.55 4 11 0 0 3 3
Dec 2019 31 52.6 37.2 61.6 24.2 6.81 3 7 0 0 13 11
Total 365 - - - - 43.34 24 51 54 1 69 55
Average 30.4 71.3 42.6 - - 3.61 2 4.2 4.5 0.1 5.8 4.6
Maximum 31 91.4 55.5 102 - 17.41 10 14 21 1 17 14
Minimum 28 49.5 33.4 - 21.5 0 0 0 0 0 0 0
Calm: 11.3%
Calm: 15.6%